Accueil
METAR-TAF:

METAR-TAF

Aéroports :

Aéroport international Maiquetía - Simón Bolívar

Caracas, Venezuela

latitude: 10-36N, longitude: 066-59W, altitude: 43 m

Observation

Le bulletin a été fait il y a 1 heure et 1 minutes, à 18:02 UTC
Température
Pression

METAR: SVMI 071802Z AUTO NIL

Heure: 15:03 (19:03 UTC)

Prévision

Le bulletin a été fait il y a 3 heures et 3 minutes, à 16:00 UTC
Prévision valable du 07 à 18 UTC au 08 à 18 UTC
Vent 4 kt de est
Visibilité 10 km ou plus
Nuages épars à une hauteur de 1600 ft
Evoluant progressivement
du 07 à 18 UTC au 07 à 22 UTC
Vent 2 kt de est/sud-est
Visibilité: 9000 m
Nuages fragmentés à une hauteur de 1600 ft
faible bruine

TAF: SVMI 071600Z 0718/0818 09004KT 9999 SCT016 TX31/0717Z TN23/0717Z BECMG 0718/0722 11002KT 9000 -DZ BKN016

Observations et prévisions météorologiques de plus de 4000 aéroports (messages METAR et TAF).

Les stations disponibles sont représentées par des disques jaunes et rouges sur la carte.

Passer la souris dessus pour voir le nom de la station.

Cliquer dessus pour voir les observations et prévisions météorologiques.

Pour changer de carte: cliquez sur les boutons verts avec une croix noire pour zoomer, sur le bouton vert avec un tiret pour effectuer un zoom arrière, ou sur les flèches vertes pour les cartes adjacentes.


METAR-TAF: